Main page
METAR-TAF:

METAR-TAF

Airports :

Gibraltar International Airport

Gibraltar, Gibraltar

latitude: 36-09N, longitude: 005-21W, elevation: 5 m

Current weather observation

The report was made 59 minutes ago, at 00:50 UTC
Wind 3 kt from the West
Temperature 15°C
Humidity 88%
Pressure 1015 hPa
Visibility 10 km or more

METAR: LXGB 110050Z AUTO 28003KT 9999 FEW004/// 15/13 Q1015

Time: 03:49 (01:49 UTC)

Forecast

The report was made 7 hours and 47 minutes ago, at 18:02 UTC
Forecast valid from 10 at 18 UTC to 10 at 23 UTC
Wind 6 kt from the East/Southeast
Visibility 10 km or more
Few clouds at a height of 800 ft
Probability 30% :
Temporary
from 10 at 18 UTC to 10 at 23 UTC
Visibility: 5000 m
Broken clouds at a height of 600 ft
haze
Becoming
from 10 at 18 UTC to 10 at 20 UTC
Wind 4 kt from the West

TAF: LXGB 101802Z 1018/1023 12006KT 9999 FEW008 PROB30 TEMPO 1018/1023 5000 HZ BKN006 BECMG 1018/1020 27004KT

Weather observations and forecasts of more than 4000 airports (METAR and TAF reports).

The available stations are represented by yellow and red dots on the map.

Hover mouse over dot to see the name of the station.

Then click to see weather observations and forecasts.

To change the map : click on the green buttons with a black cross to zoom in, on the green button with a dash to zoom out, or on the green arrows for adjacent maps.


METAR-TAF: